sensor_id;sensor_type;location;lat;lon;timestamp;temperature;humidity
57108;DHT22;42987;52.916;6.542;2023-02-13T00:02:09;7.10;99.90
57108;DHT22;42987;52.916;6.542;2023-02-13T00:04:35;7.10;99.90
57108;DHT22;42987;52.916;6.542;2023-02-13T00:07:01;7.20;99.90
57108;DHT22;42987;52.916;6.542;2023-02-13T00:09:26;7.20;99.90
57108;DHT22;42987;52.916;6.542;2023-02-13T00:11:52;7.30;99.90
57108;DHT22;42987;52.916;6.542;2023-02-13T00:14:18;7.20;99.90
57108;DHT22;42987;52.916;6.542;2023-02-13T00:16:44;7.30;99.90
57108;DHT22;42987;52.916;6.542;2023-02-13T00:19:10;7.30;99.90
57108;DHT22;42987;52.916;6.542;2023-02-13T00:21:35;7.30;99.90
57108;DHT22;42987;52.916;6.542;2023-02-13T00:24:01;7.30;99.90
57108;DHT22;42987;52.916;6.542;2023-02-13T00:26:27;7.30;99.90
57108;DHT22;42987;52.916;6.542;2023-02-13T00:28:53;7.30;99.90
57108;DHT22;42987;52.916;6.542;2023-02-13T00:31:20;7.30;99.90
57108;DHT22;42987;52.916;6.542;2023-02-13T00:33:46;7.20;99.90
57108;DHT22;42987;52.916;6.542;2023-02-13T00:36:20;7.30;99.90
57108;DHT22;42987;52.916;6.542;2023-02-13T00:38:47;7.20;99.90
57108;DHT22;42987;52.916;6.542;2023-02-13T00:41:14;7.20;99.90
57108;DHT22;42987;52.916;6.542;2023-02-13T00:43:42;7.20;99.90
57108;DHT22;42987;52.916;6.542;2023-02-13T00:46:09;7.20;99.90
57108;DHT22;42987;52.916;6.542;2023-02-13T00:48:35;7.20;99.90
57108;DHT22;42987;52.916;6.542;2023-02-13T00:51:01;7.20;99.90
57108;DHT22;42987;52.916;6.542;2023-02-13T00:53:27;7.20;99.90
57108;DHT22;42987;52.916;6.542;2023-02-13T00:55:53;7.20;99.90
57108;DHT22;42987;52.916;6.542;2023-02-13T00:58:19;7.20;99.90
57108;DHT22;42987;52.916;6.542;2023-02-13T01:00:46;7.20;99.90
57108;DHT22;42987;52.916;6.542;2023-02-13T01:03:13;7.20;99.90
57108;DHT22;42987;52.916;6.542;2023-02-13T01:05:39;7.20;99.90
57108;DHT22;42987;52.916;6.542;2023-02-13T01:08:05;7.20;99.90
57108;DHT22;42987;52.916;6.542;2023-02-13T01:10:31;7.20;99.90
57108;DHT22;42987;52.916;6.542;2023-02-13T01:12:57;7.20;99.90
57108;DHT22;42987;52.916;6.542;2023-02-13T01:15:23;7.20;99.90
57108;DHT22;42987;52.916;6.542;2023-02-13T01:17:48;7.20;99.90
57108;DHT22;42987;52.916;6.542;2023-02-13T01:20:14;7.20;99.90
57108;DHT22;42987;52.916;6.542;2023-02-13T01:22:40;7.20;99.90
57108;DHT22;42987;52.916;6.542;2023-02-13T01:25:09;7.20;99.90
57108;DHT22;42987;52.916;6.542;2023-02-13T01:27:34;7.20;99.90
57108;DHT22;42987;52.916;6.542;2023-02-13T01:30:04;7.20;99.90
57108;DHT22;42987;52.916;6.542;2023-02-13T01:32:39;7.20;99.90
57108;DHT22;42987;52.916;6.542;2023-02-13T01:35:05;7.10;99.90
57108;DHT22;42987;52.916;6.542;2023-02-13T01:37:31;7.10;99.90
57108;DHT22;42987;52.916;6.542;2023-02-13T01:39:57;7.10;99.90
57108;DHT22;42987;52.916;6.542;2023-02-13T01:42:32;7.10;99.90
57108;DHT22;42987;52.916;6.542;2023-02-13T01:45:18;7.10;99.90
57108;DHT22;42987;52.916;6.542;2023-02-13T01:47:48;7.10;99.90
57108;DHT22;42987;52.916;6.542;2023-02-13T01:50:59;7.10;99.90
57108;DHT22;42987;52.916;6.542;2023-02-13T01:53:42;7.10;99.90
57108;DHT22;42987;52.916;6.542;2023-02-13T01:58:39;7.10;99.90
57108;DHT22;42987;52.916;6.542;2023-02-13T02:01:07;7.10;99.90
57108;DHT22;42987;52.916;6.542;2023-02-13T02:03:44;7.00;99.90
57108;DHT22;42987;52.916;6.542;2023-02-13T02:06:17;7.00;99.90
57108;DHT22;42987;52.916;6.542;2023-02-13T02:08:46;7.00;99.90
57108;DHT22;42987;52.916;6.542;2023-02-13T02:11:26;6.90;99.90
57108;DHT22;42987;52.916;6.542;2023-02-13T02:13:53;6.90;99.90
57108;DHT22;42987;52.916;6.542;2023-02-13T02:16:19;6.90;99.90
57108;DHT22;42987;52.916;6.542;2023-02-13T02:18:45;6.80;99.90
57108;DHT22;42987;52.916;6.542;2023-02-13T02:21:38;6.90;99.90
57108;DHT22;42987;52.916;6.542;2023-02-13T02:29:31;6.80;99.90
57108;DHT22;42987;52.916;6.542;2023-02-13T02:40:30;6.70;99.90
57108;DHT22;42987;52.916;6.542;2023-02-13T02:43:15;6.70;99.90
57108;DHT22;42987;52.916;6.542;2023-02-13T02:45:53;6.70;99.90
57108;DHT22;42987;52.916;6.542;2023-02-13T02:48:32;6.70;99.90
57108;DHT22;42987;52.916;6.542;2023-02-13T02:54:12;6.70;99.90
57108;DHT22;42987;52.916;6.542;2023-02-13T02:57:02;6.70;99.90
57108;DHT22;42987;52.916;6.542;2023-02-13T02:59:29;6.70;99.90
57108;DHT22;42987;52.916;6.542;2023-02-13T03:02:15;6.70;99.90
57108;DHT22;42987;52.916;6.542;2023-02-13T03:05:25;6.70;99.90
57108;DHT22;42987;52.916;6.542;2023-02-13T03:08:10;6.60;99.90
57108;DHT22;42987;52.916;6.542;2023-02-13T03:10:37;6.70;99.90
57108;DHT22;42987;52.916;6.542;2023-02-13T03:13:35;6.70;99.90
57108;DHT22;42987;52.916;6.542;2023-02-13T03:16:03;6.70;99.90
57108;DHT22;42987;52.916;6.542;2023-02-13T03:18:55;6.60;99.90
57108;DHT22;42987;52.916;6.542;2023-02-13T03:21:57;6.70;99.90
57108;DHT22;42987;52.916;6.542;2023-02-13T03:24:59;6.60;99.90
57108;DHT22;42987;52.916;6.542;2023-02-13T03:27:45;6.70;99.90
57108;DHT22;42987;52.916;6.542;2023-02-13T03:36:54;6.60;99.90
57108;DHT22;42987;52.916;6.542;2023-02-13T03:40:04;6.60;99.90
57108;DHT22;42987;52.916;6.542;2023-02-13T03:45:30;6.60;99.90
57108;DHT22;42987;52.916;6.542;2023-02-13T03:48:18;6.60;99.90
57108;DHT22;42987;52.916;6.542;2023-02-13T03:51:04;6.60;99.90
57108;DHT22;42987;52.916;6.542;2023-02-13T03:53:37;6.60;99.90
57108;DHT22;42987;52.916;6.542;2023-02-13T03:56:07;6.60;99.90
57108;DHT22;42987;52.916;6.542;2023-02-13T03:58:55;6.60;99.90
57108;DHT22;42987;52.916;6.542;2023-02-13T04:01:45;6.60;99.90
57108;DHT22;42987;52.916;6.542;2023-02-13T04:07:34;6.60;99.90
57108;DHT22;42987;52.916;6.542;2023-02-13T04:10:09;6.60;99.90
57108;DHT22;42987;52.916;6.542;2023-02-13T04:12:51;6.60;99.90
57108;DHT22;42987;52.916;6.542;2023-02-13T04:15:28;6.60;99.90
57108;DHT22;42987;52.916;6.542;2023-02-13T04:18:20;6.70;99.90
57108;DHT22;42987;52.916;6.542;2023-02-13T04:20:50;6.70;99.90
57108;DHT22;42987;52.916;6.542;2023-02-13T04:23:16;6.60;99.90
57108;DHT22;42987;52.916;6.542;2023-02-13T04:25:44;6.60;99.90
57108;DHT22;42987;52.916;6.542;2023-02-13T04:28:11;6.60;99.90
57108;DHT22;42987;52.916;6.542;2023-02-13T04:30:37;6.70;99.90
57108;DHT22;42987;52.916;6.542;2023-02-13T04:33:03;6.60;99.90
57108;DHT22;42987;52.916;6.542;2023-02-13T04:35:29;6.60;99.90
57108;DHT22;42987;52.916;6.542;2023-02-13T04:37:55;6.70;99.90
57108;DHT22;42987;52.916;6.542;2023-02-13T04:40:20;6.70;99.90
57108;DHT22;42987;52.916;6.542;2023-02-13T04:42:47;6.70;99.90
57108;DHT22;42987;52.916;6.542;2023-02-13T04:45:14;6.60;99.90
57108;DHT22;42987;52.916;6.542;2023-02-13T04:47:39;6.70;99.90
57108;DHT22;42987;52.916;6.542;2023-02-13T04:50:05;6.70;99.90
57108;DHT22;42987;52.916;6.542;2023-02-13T04:52:31;6.60;99.90
57108;DHT22;42987;52.916;6.542;2023-02-13T04:54:57;6.60;99.90
57108;DHT22;42987;52.916;6.542;2023-02-13T04:57:23;6.70;99.90
57108;DHT22;42987;52.916;6.542;2023-02-13T04:59:49;6.60;99.90
57108;DHT22;42987;52.916;6.542;2023-02-13T05:02:15;6.60;99.90
57108;DHT22;42987;52.916;6.542;2023-02-13T05:04:41;6.60;99.90
57108;DHT22;42987;52.916;6.542;2023-02-13T05:07:07;6.60;99.90
57108;DHT22;42987;52.916;6.542;2023-02-13T05:09:33;6.60;99.90
57108;DHT22;42987;52.916;6.542;2023-02-13T05:11:58;6.60;99.90
57108;DHT22;42987;52.916;6.542;2023-02-13T05:14:28;6.60;99.90
57108;DHT22;42987;52.916;6.542;2023-02-13T05:16:53;6.60;99.90
57108;DHT22;42987;52.916;6.542;2023-02-13T05:19:19;6.60;99.90
57108;DHT22;42987;52.916;6.542;2023-02-13T05:21:45;6.60;99.90
57108;DHT22;42987;52.916;6.542;2023-02-13T05:24:32;6.60;99.90
57108;DHT22;42987;52.916;6.542;2023-02-13T05:26:58;6.60;99.90
57108;DHT22;42987;52.916;6.542;2023-02-13T05:29:27;6.60;99.90
57108;DHT22;42987;52.916;6.542;2023-02-13T05:31:55;6.60;99.90
57108;DHT22;42987;52.916;6.542;2023-02-13T05:34:23;6.60;99.90
57108;DHT22;42987;52.916;6.542;2023-02-13T05:36:50;6.70;99.90
57108;DHT22;42987;52.916;6.542;2023-02-13T05:39:16;6.60;99.90
57108;DHT22;42987;52.916;6.542;2023-02-13T05:41:43;6.60;99.90
57108;DHT22;42987;52.916;6.542;2023-02-13T05:44:10;6.60;99.90
57108;DHT22;42987;52.916;6.542;2023-02-13T05:46:36;6.60;99.90
57108;DHT22;42987;52.916;6.542;2023-02-13T05:49:03;6.60;99.90
57108;DHT22;42987;52.916;6.542;2023-02-13T05:51:29;6.60;99.90
57108;DHT22;42987;52.916;6.542;2023-02-13T05:53:55;6.60;99.90
57108;DHT22;42987;52.916;6.542;2023-02-13T05:56:21;6.60;99.90
57108;DHT22;42987;52.916;6.542;2023-02-13T05:58:50;6.60;99.90
57108;DHT22;42987;52.916;6.542;2023-02-13T06:01:16;6.60;99.90
57108;DHT22;42987;52.916;6.542;2023-02-13T06:03:42;6.50;99.90
57108;DHT22;42987;52.916;6.542;2023-02-13T06:06:08;6.60;99.90
57108;DHT22;42987;52.916;6.542;2023-02-13T06:08:34;6.60;99.90
57108;DHT22;42987;52.916;6.542;2023-02-13T06:11:00;6.60;99.90
57108;DHT22;42987;52.916;6.542;2023-02-13T06:13:26;6.60;99.90
57108;DHT22;42987;52.916;6.542;2023-02-13T06:15:52;6.60;99.90
57108;DHT22;42987;52.916;6.542;2023-02-13T06:18:18;6.60;99.90
57108;DHT22;42987;52.916;6.542;2023-02-13T06:20:44;6.60;99.90
57108;DHT22;42987;52.916;6.542;2023-02-13T06:23:10;6.60;99.90
57108;DHT22;42987;52.916;6.542;2023-02-13T06:25:36;6.60;99.90
57108;DHT22;42987;52.916;6.542;2023-02-13T06:28:03;6.60;99.90
57108;DHT22;42987;52.916;6.542;2023-02-13T06:30:29;6.60;99.90
57108;DHT22;42987;52.916;6.542;2023-02-13T06:32:55;6.60;99.90
57108;DHT22;42987;52.916;6.542;2023-02-13T06:35:21;6.60;99.90
57108;DHT22;42987;52.916;6.542;2023-02-13T06:37:47;6.70;99.90
57108;DHT22;42987;52.916;6.542;2023-02-13T06:40:14;6.60;99.90
57108;DHT22;42987;52.916;6.542;2023-02-13T06:42:41;6.60;99.90
57108;DHT22;42987;52.916;6.542;2023-02-13T06:45:08;6.60;99.90
57108;DHT22;42987;52.916;6.542;2023-02-13T06:47:34;6.60;99.90
57108;DHT22;42987;52.916;6.542;2023-02-13T06:50:00;6.60;99.90
57108;DHT22;42987;52.916;6.542;2023-02-13T06:52:26;6.60;99.90
57108;DHT22;42987;52.916;6.542;2023-02-13T06:54:52;6.60;99.90
57108;DHT22;42987;52.916;6.542;2023-02-13T06:57:18;6.60;99.90
57108;DHT22;42987;52.916;6.542;2023-02-13T06:59:44;6.50;99.90
57108;DHT22;42987;52.916;6.542;2023-02-13T07:02:11;6.40;99.90
57108;DHT22;42987;52.916;6.542;2023-02-13T07:04:37;6.40;99.90
57108;DHT22;42987;52.916;6.542;2023-02-13T07:07:03;6.40;99.90
57108;DHT22;42987;52.916;6.542;2023-02-13T07:09:30;6.50;99.90
57108;DHT22;42987;52.916;6.542;2023-02-13T07:11:57;6.40;99.90
57108;DHT22;42987;52.916;6.542;2023-02-13T07:14:22;6.50;99.90
57108;DHT22;42987;52.916;6.542;2023-02-13T07:16:51;6.40;99.90
57108;DHT22;42987;52.916;6.542;2023-02-13T07:19:17;6.50;99.90
57108;DHT22;42987;52.916;6.542;2023-02-13T07:21:43;6.50;99.90
57108;DHT22;42987;52.916;6.542;2023-02-13T07:24:09;6.50;99.90
57108;DHT22;42987;52.916;6.542;2023-02-13T07:26:34;6.50;99.90
57108;DHT22;42987;52.916;6.542;2023-02-13T07:29:00;6.60;99.90
57108;DHT22;42987;52.916;6.542;2023-02-13T07:31:32;6.60;99.90
57108;DHT22;42987;52.916;6.542;2023-02-13T07:33:58;6.60;99.90
57108;DHT22;42987;52.916;6.542;2023-02-13T07:36:25;6.60;99.90
57108;DHT22;42987;52.916;6.542;2023-02-13T07:38:51;6.60;99.90
57108;DHT22;42987;52.916;6.542;2023-02-13T07:41:17;6.60;99.90
57108;DHT22;42987;52.916;6.542;2023-02-13T07:43:43;6.60;99.90
57108;DHT22;42987;52.916;6.542;2023-02-13T07:46:09;6.70;99.90
57108;DHT22;42987;52.916;6.542;2023-02-13T07:48:35;6.70;99.90
57108;DHT22;42987;52.916;6.542;2023-02-13T07:51:04;6.70;99.90
57108;DHT22;42987;52.916;6.542;2023-02-13T07:53:30;6.70;99.90
57108;DHT22;42987;52.916;6.542;2023-02-13T07:55:56;6.70;99.90
57108;DHT22;42987;52.916;6.542;2023-02-13T07:58:22;6.70;99.90
57108;DHT22;42987;52.916;6.542;2023-02-13T08:00:48;6.70;99.90
57108;DHT22;42987;52.916;6.542;2023-02-13T08:03:14;6.70;99.90
57108;DHT22;42987;52.916;6.542;2023-02-13T08:05:40;6.80;99.90
57108;DHT22;42987;52.916;6.542;2023-02-13T08:08:06;6.80;99.90
57108;DHT22;42987;52.916;6.542;2023-02-13T08:10:32;6.80;99.90
57108;DHT22;42987;52.916;6.542;2023-02-13T08:13:17;6.80;99.90
57108;DHT22;42987;52.916;6.542;2023-02-13T08:15:43;6.80;99.90
57108;DHT22;42987;52.916;6.542;2023-02-13T08:18:11;6.90;99.90
57108;DHT22;42987;52.916;6.542;2023-02-13T08:20:37;6.90;99.90
57108;DHT22;42987;52.916;6.542;2023-02-13T08:23:05;6.90;99.90
57108;DHT22;42987;52.916;6.542;2023-02-13T08:25:32;6.90;99.90
57108;DHT22;42987;52.916;6.542;2023-02-13T08:27:58;6.90;99.90
57108;DHT22;42987;52.916;6.542;2023-02-13T08:30:25;7.00;99.90
57108;DHT22;42987;52.916;6.542;2023-02-13T08:32:51;7.00;99.90
57108;DHT22;42987;52.916;6.542;2023-02-13T08:35:17;7.00;99.90
57108;DHT22;42987;52.916;6.542;2023-02-13T08:37:43;7.00;99.90
57108;DHT22;42987;52.916;6.542;2023-02-13T08:40:09;7.00;99.90
57108;DHT22;42987;52.916;6.542;2023-02-13T08:42:38;7.00;99.90
57108;DHT22;42987;52.916;6.542;2023-02-13T08:45:05;7.00;99.90
57108;DHT22;42987;52.916;6.542;2023-02-13T08:47:31;7.00;99.90
57108;DHT22;42987;52.916;6.542;2023-02-13T08:49:57;7.00;99.90
57108;DHT22;42987;52.916;6.542;2023-02-13T08:52:22;7.00;99.90
57108;DHT22;42987;52.916;6.542;2023-02-13T08:54:49;7.00;99.90
57108;DHT22;42987;52.916;6.542;2023-02-13T08:57:14;7.10;99.90
57108;DHT22;42987;52.916;6.542;2023-02-13T08:59:40;7.10;99.90
57108;DHT22;42987;52.916;6.542;2023-02-13T09:02:07;7.10;99.90
57108;DHT22;42987;52.916;6.542;2023-02-13T09:04:34;7.10;99.90
57108;DHT22;42987;52.916;6.542;2023-02-13T09:07:00;7.10;99.90
57108;DHT22;42987;52.916;6.542;2023-02-13T09:09:26;7.20;99.90
57108;DHT22;42987;52.916;6.542;2023-02-13T09:11:52;7.20;99.90
57108;DHT22;42987;52.916;6.542;2023-02-13T09:14:20;7.20;99.90
57108;DHT22;42987;52.916;6.542;2023-02-13T09:16:46;7.20;99.90
57108;DHT22;42987;52.916;6.542;2023-02-13T09:19:12;7.20;99.90
57108;DHT22;42987;52.916;6.542;2023-02-13T09:21:38;7.20;99.90
57108;DHT22;42987;52.916;6.542;2023-02-13T09:24:07;7.30;99.90
57108;DHT22;42987;52.916;6.542;2023-02-13T09:26:33;7.30;99.90
57108;DHT22;42987;52.916;6.542;2023-02-13T09:28:58;7.30;99.90
57108;DHT22;42987;52.916;6.542;2023-02-13T09:31:27;7.30;99.90
57108;DHT22;42987;52.916;6.542;2023-02-13T09:33:53;7.30;99.90
57108;DHT22;42987;52.916;6.542;2023-02-13T09:36:23;7.30;99.90
57108;DHT22;42987;52.916;6.542;2023-02-13T09:38:54;7.40;99.90
57108;DHT22;42987;52.916;6.542;2023-02-13T09:41:31;7.40;99.90
57108;DHT22;42987;52.916;6.542;2023-02-13T09:44:05;7.40;99.90
57108;DHT22;42987;52.916;6.542;2023-02-13T09:46:37;7.40;99.90
57108;DHT22;42987;52.916;6.542;2023-02-13T09:49:16;7.50;99.90
57108;DHT22;42987;52.916;6.542;2023-02-13T09:51:44;7.50;99.90
57108;DHT22;42987;52.916;6.542;2023-02-13T09:54:14;7.50;99.90
57108;DHT22;42987;52.916;6.542;2023-02-13T10:05:09;7.70;99.90
57108;DHT22;42987;52.916;6.542;2023-02-13T10:07:48;7.70;99.90
57108;DHT22;42987;52.916;6.542;2023-02-13T10:15:48;7.80;99.90
57108;DHT22;42987;52.916;6.542;2023-02-13T10:18:19;7.90;99.90
57108;DHT22;42987;52.916;6.542;2023-02-13T10:20:53;7.90;99.90
57108;DHT22;42987;52.916;6.542;2023-02-13T10:23:29;7.90;99.90
57108;DHT22;42987;52.916;6.542;2023-02-13T10:26:20;8.00;99.90
57108;DHT22;42987;52.916;6.542;2023-02-13T10:28:57;8.00;99.90
57108;DHT22;42987;52.916;6.542;2023-02-13T10:31:44;8.00;99.90
57108;DHT22;42987;52.916;6.542;2023-02-13T10:34:16;8.10;99.90
57108;DHT22;42987;52.916;6.542;2023-02-13T10:36:46;8.10;99.90
57108;DHT22;42987;52.916;6.542;2023-02-13T10:42:03;8.10;99.90
57108;DHT22;42987;52.916;6.542;2023-02-13T10:52:42;8.30;99.90
57108;DHT22;42987;52.916;6.542;2023-02-13T10:55:25;8.30;99.90
57108;DHT22;42987;52.916;6.542;2023-02-13T10:58:02;8.30;99.90
57108;DHT22;42987;52.916;6.542;2023-02-13T11:03:42;8.40;99.90
57108;DHT22;42987;52.916;6.542;2023-02-13T11:06:11;8.40;99.90
57108;DHT22;42987;52.916;6.542;2023-02-13T11:08:44;8.40;99.90
57108;DHT22;42987;52.916;6.542;2023-02-13T11:14:20;8.50;99.90
57108;DHT22;42987;52.916;6.542;2023-02-13T11:16:58;8.50;99.90
57108;DHT22;42987;52.916;6.542;2023-02-13T11:19:34;8.50;99.90
57108;DHT22;42987;52.916;6.542;2023-02-13T11:22:12;8.50;99.90
57108;DHT22;42987;52.916;6.542;2023-02-13T11:24:40;8.50;99.90
57108;DHT22;42987;52.916;6.542;2023-02-13T11:27:09;8.50;99.90
57108;DHT22;42987;52.916;6.542;2023-02-13T11:29:56;8.60;99.90
57108;DHT22;42987;52.916;6.542;2023-02-13T11:32:25;8.60;99.90
57108;DHT22;42987;52.916;6.542;2023-02-13T11:34:51;8.60;99.90
57108;DHT22;42987;52.916;6.542;2023-02-13T11:37:23;8.70;99.90
57108;DHT22;42987;52.916;6.542;2023-02-13T11:39:53;8.70;99.90
57108;DHT22;42987;52.916;6.542;2023-02-13T11:47:43;8.80;99.90
57108;DHT22;42987;52.916;6.542;2023-02-13T11:50:29;8.80;99.90
57108;DHT22;42987;52.916;6.542;2023-02-13T11:53:03;8.90;99.90
57108;DHT22;42987;52.916;6.542;2023-02-13T11:55:39;8.90;99.90
57108;DHT22;42987;52.916;6.542;2023-02-13T12:00:38;9.00;99.90
57108;DHT22;42987;52.916;6.542;2023-02-13T12:06:11;9.10;99.90
57108;DHT22;42987;52.916;6.542;2023-02-13T12:08:40;9.10;99.90
57108;DHT22;42987;52.916;6.542;2023-02-13T12:13:41;9.10;99.90
57108;DHT22;42987;52.916;6.542;2023-02-13T12:16:19;9.20;99.90
57108;DHT22;42987;52.916;6.542;2023-02-13T12:18:51;9.30;99.90
57108;DHT22;42987;52.916;6.542;2023-02-13T12:38:02;9.60;99.90
57108;DHT22;42987;52.916;6.542;2023-02-13T12:46:19;9.70;99.90
57108;DHT22;42987;52.916;6.542;2023-02-13T12:49:32;9.70;99.90
57108;DHT22;42987;52.916;6.542;2023-02-13T12:54:27;9.80;99.90
57108;DHT22;42987;52.916;6.542;2023-02-13T12:59:34;9.70;99.90
57108;DHT22;42987;52.916;6.542;2023-02-13T13:04:45;9.70;99.90
57108;DHT22;42987;52.916;6.542;2023-02-13T13:09:59;9.70;99.90
57108;DHT22;42987;52.916;6.542;2023-02-13T13:15:10;9.70;99.90
57108;DHT22;42987;52.916;6.542;2023-02-13T13:20:46;9.70;99.90
57108;DHT22;42987;52.916;6.542;2023-02-13T13:23:39;9.70;99.90
57108;DHT22;42987;52.916;6.542;2023-02-13T13:26:19;9.70;99.90
57108;DHT22;42987;52.916;6.542;2023-02-13T13:28:59;9.70;99.90
57108;DHT22;42987;52.916;6.542;2023-02-13T13:31:27;9.70;99.90
57108;DHT22;42987;52.916;6.542;2023-02-13T13:33:59;9.70;99.90
57108;DHT22;42987;52.916;6.542;2023-02-13T13:46:05;9.90;99.90
57108;DHT22;42987;52.916;6.542;2023-02-13T13:48:39;9.80;99.90
57108;DHT22;42987;52.916;6.542;2023-02-13T13:51:17;9.80;99.90
57108;DHT22;42987;52.916;6.542;2023-02-13T14:07:51;10.00;99.90
57108;DHT22;42987;52.916;6.542;2023-02-13T14:20:41;10.00;99.90
57108;DHT22;42987;52.916;6.542;2023-02-13T14:31:32;9.90;99.90
57108;DHT22;42987;52.916;6.542;2023-02-13T14:34:07;9.80;99.90
57108;DHT22;42987;52.916;6.542;2023-02-13T14:36:57;9.70;99.90
57108;DHT22;42987;52.916;6.542;2023-02-13T14:39:34;9.70;99.90
57108;DHT22;42987;52.916;6.542;2023-02-13T14:42:21;9.60;99.90
57108;DHT22;42987;52.916;6.542;2023-02-13T14:44:52;9.60;99.90
57108;DHT22;42987;52.916;6.542;2023-02-13T14:47:29;9.60;99.90
57108;DHT22;42987;52.916;6.542;2023-02-13T14:49:57;9.50;99.90
57108;DHT22;42987;52.916;6.542;2023-02-13T14:52:28;9.50;99.90
57108;DHT22;42987;52.916;6.542;2023-02-13T14:55:16;9.60;99.90
57108;DHT22;42987;52.916;6.542;2023-02-13T15:05:56;9.40;99.90
57108;DHT22;42987;52.916;6.542;2023-02-13T15:08:27;9.40;99.90
57108;DHT22;42987;52.916;6.542;2023-02-13T15:10:55;9.40;99.90
57108;DHT22;42987;52.916;6.542;2023-02-13T15:13:39;9.40;99.90
57108;DHT22;42987;52.916;6.542;2023-02-13T15:16:11;9.30;99.90
57108;DHT22;42987;52.916;6.542;2023-02-13T15:18:44;9.30;99.90
57108;DHT22;42987;52.916;6.542;2023-02-13T15:21:16;9.40;99.90
57108;DHT22;42987;52.916;6.542;2023-02-13T15:23:43;9.40;99.90
57108;DHT22;42987;52.916;6.542;2023-02-13T15:26:19;9.40;99.90
57108;DHT22;42987;52.916;6.542;2023-02-13T15:29:18;9.50;99.90
57108;DHT22;42987;52.916;6.542;2023-02-13T15:31:44;9.50;99.90
57108;DHT22;42987;52.916;6.542;2023-02-13T15:34:39;9.50;99.90
57108;DHT22;42987;52.916;6.542;2023-02-13T15:37:22;9.50;99.90
57108;DHT22;42987;52.916;6.542;2023-02-13T15:39:48;9.40;99.90
57108;DHT22;42987;52.916;6.542;2023-02-13T15:42:14;9.40;99.90
57108;DHT22;42987;52.916;6.542;2023-02-13T15:44:43;9.40;99.90
57108;DHT22;42987;52.916;6.542;2023-02-13T15:47:27;9.50;99.90
57108;DHT22;42987;52.916;6.542;2023-02-13T15:49:56;9.40;99.90
57108;DHT22;42987;52.916;6.542;2023-02-13T15:52:30;9.40;99.90
57108;DHT22;42987;52.916;6.542;2023-02-13T15:54:56;9.30;99.90
57108;DHT22;42987;52.916;6.542;2023-02-13T15:57:26;9.30;99.90
57108;DHT22;42987;52.916;6.542;2023-02-13T15:59:53;9.20;99.90
57108;DHT22;42987;52.916;6.542;2023-02-13T16:02:39;9.20;99.90
57108;DHT22;42987;52.916;6.542;2023-02-13T16:05:08;9.20;99.90
57108;DHT22;42987;52.916;6.542;2023-02-13T16:07:54;9.20;99.90
57108;DHT22;42987;52.916;6.542;2023-02-13T16:10:30;9.20;99.90
57108;DHT22;42987;52.916;6.542;2023-02-13T16:13:05;9.20;99.90
57108;DHT22;42987;52.916;6.542;2023-02-13T16:15:34;9.20;99.90
57108;DHT22;42987;52.916;6.542;2023-02-13T16:18:02;9.20;99.90
57108;DHT22;42987;52.916;6.542;2023-02-13T16:20:29;9.10;99.90
57108;DHT22;42987;52.916;6.542;2023-02-13T16:23:00;9.10;99.90
57108;DHT22;42987;52.916;6.542;2023-02-13T16:38:41;8.70;99.90
57108;DHT22;42987;52.916;6.542;2023-02-13T16:43:47;8.40;99.90
57108;DHT22;42987;52.916;6.542;2023-02-13T16:48:44;8.20;99.90
57108;DHT22;42987;52.916;6.542;2023-02-13T16:51:11;8.10;99.90
57108;DHT22;42987;52.916;6.542;2023-02-13T16:53:37;8.00;99.90
57108;DHT22;42987;52.916;6.542;2023-02-13T16:56:08;7.90;99.90
57108;DHT22;42987;52.916;6.542;2023-02-13T16:58:38;7.80;99.90
57108;DHT22;42987;52.916;6.542;2023-02-13T17:01:04;7.70;99.90
57108;DHT22;42987;52.916;6.542;2023-02-13T17:03:33;7.60;99.90
57108;DHT22;42987;52.916;6.542;2023-02-13T17:06:00;7.50;99.90
57108;DHT22;42987;52.916;6.542;2023-02-13T17:08:30;7.40;99.90
57108;DHT22;42987;52.916;6.542;2023-02-13T17:11:05;7.30;99.90
57108;DHT22;42987;52.916;6.542;2023-02-13T17:13:32;7.30;99.90
57108;DHT22;42987;52.916;6.542;2023-02-13T17:15:57;7.10;99.90
57108;DHT22;42987;52.916;6.542;2023-02-13T17:18:27;7.00;99.90
57108;DHT22;42987;52.916;6.542;2023-02-13T17:20:53;7.00;99.90
57108;DHT22;42987;52.916;6.542;2023-02-13T17:23:28;6.90;99.90
57108;DHT22;42987;52.916;6.542;2023-02-13T17:25:56;6.90;99.90
57108;DHT22;42987;52.916;6.542;2023-02-13T17:28:25;6.70;99.90
57108;DHT22;42987;52.916;6.542;2023-02-13T17:30:57;6.70;99.90
57108;DHT22;42987;52.916;6.542;2023-02-13T17:33:31;6.60;99.90
57108;DHT22;42987;52.916;6.542;2023-02-13T17:35:59;6.60;99.90
57108;DHT22;42987;52.916;6.542;2023-02-13T17:38:25;6.60;99.90
57108;DHT22;42987;52.916;6.542;2023-02-13T17:40:50;6.50;99.90
57108;DHT22;42987;52.916;6.542;2023-02-13T17:43:18;6.40;99.90
57108;DHT22;42987;52.916;6.542;2023-02-13T17:45:45;6.30;99.90
57108;DHT22;42987;52.916;6.542;2023-02-13T17:48:12;6.20;99.90
57108;DHT22;42987;52.916;6.542;2023-02-13T17:50:38;6.20;99.90
57108;DHT22;42987;52.916;6.542;2023-02-13T17:53:06;6.10;99.90
57108;DHT22;42987;52.916;6.542;2023-02-13T17:55:34;6.00;99.90
57108;DHT22;42987;52.916;6.542;2023-02-13T17:58:00;6.00;99.90
57108;DHT22;42987;52.916;6.542;2023-02-13T18:00:29;5.90;99.90
57108;DHT22;42987;52.916;6.542;2023-02-13T18:02:56;5.90;99.90
57108;DHT22;42987;52.916;6.542;2023-02-13T18:05:22;5.80;99.90
57108;DHT22;42987;52.916;6.542;2023-02-13T18:07:48;5.80;99.90
57108;DHT22;42987;52.916;6.542;2023-02-13T18:10:20;5.70;99.90
57108;DHT22;42987;52.916;6.542;2023-02-13T18:12:47;5.60;99.90
57108;DHT22;42987;52.916;6.542;2023-02-13T18:15:14;5.50;99.90
57108;DHT22;42987;52.916;6.542;2023-02-13T18:17:40;5.50;99.90
57108;DHT22;42987;52.916;6.542;2023-02-13T18:20:08;5.40;99.90
57108;DHT22;42987;52.916;6.542;2023-02-13T18:22:35;5.40;99.90
57108;DHT22;42987;52.916;6.542;2023-02-13T18:25:04;5.30;99.90
57108;DHT22;42987;52.916;6.542;2023-02-13T18:27:30;5.20;99.90
57108;DHT22;42987;52.916;6.542;2023-02-13T18:29:56;5.20;99.90
57108;DHT22;42987;52.916;6.542;2023-02-13T18:32:22;5.20;99.90
57108;DHT22;42987;52.916;6.542;2023-02-13T18:34:48;5.10;99.90
57108;DHT22;42987;52.916;6.542;2023-02-13T18:37:18;5.10;99.90
57108;DHT22;42987;52.916;6.542;2023-02-13T18:39:44;5.10;99.90
57108;DHT22;42987;52.916;6.542;2023-02-13T18:42:10;5.00;99.90
57108;DHT22;42987;52.916;6.542;2023-02-13T18:44:39;5.00;99.90
57108;DHT22;42987;52.916;6.542;2023-02-13T18:47:08;5.00;99.90
57108;DHT22;42987;52.916;6.542;2023-02-13T18:49:34;5.00;99.90
57108;DHT22;42987;52.916;6.542;2023-02-13T18:51:59;5.10;99.90
57108;DHT22;42987;52.916;6.542;2023-02-13T18:54:27;5.10;99.90
57108;DHT22;42987;52.916;6.542;2023-02-13T18:56:52;5.20;99.90
57108;DHT22;42987;52.916;6.542;2023-02-13T18:59:18;5.30;99.90
57108;DHT22;42987;52.916;6.542;2023-02-13T19:01:44;5.40;99.90
57108;DHT22;42987;52.916;6.542;2023-02-13T19:04:10;5.50;99.90
57108;DHT22;42987;52.916;6.542;2023-02-13T19:06:40;5.50;99.90
57108;DHT22;42987;52.916;6.542;2023-02-13T19:09:07;5.50;99.90
57108;DHT22;42987;52.916;6.542;2023-02-13T19:11:33;5.60;99.90